sensor_id;sensor_type;location;lat;lon;timestamp;temperature;humidity
65584;DHT22;62116;43.582;1.470;2023-04-12T00:00:58;15.25;66.13
65584;DHT22;62116;43.582;1.470;2023-04-12T00:03:24;15.20;66.25
65584;DHT22;62116;43.582;1.470;2023-04-12T00:05:51;15.14;66.44
65584;DHT22;62116;43.582;1.470;2023-04-12T00:08:19;15.21;66.24
65584;DHT22;62116;43.582;1.470;2023-04-12T00:10:50;15.14;66.47
65584;DHT22;62116;43.582;1.470;2023-04-12T00:13:16;15.17;66.38
65584;DHT22;62116;43.582;1.470;2023-04-12T00:15:42;15.10;66.78
65584;DHT22;62116;43.582;1.470;2023-04-12T00:18:07;15.14;66.83
65584;DHT22;62116;43.582;1.470;2023-04-12T00:20:32;15.11;66.81
65584;DHT22;62116;43.582;1.470;2023-04-12T00:22:58;15.11;66.74
65584;DHT22;62116;43.582;1.470;2023-04-12T00:25:23;15.05;66.71
65584;DHT22;62116;43.582;1.470;2023-04-12T00:27:49;15.04;66.73
65584;DHT22;62116;43.582;1.470;2023-04-12T00:30:14;15.01;66.88
65584;DHT22;62116;43.582;1.470;2023-04-12T00:32:40;14.93;66.96
65584;DHT22;62116;43.582;1.470;2023-04-12T00:35:05;14.93;66.80
65584;DHT22;62116;43.582;1.470;2023-04-12T00:37:31;14.91;66.82
65584;DHT22;62116;43.582;1.470;2023-04-12T00:39:57;14.86;67.07
65584;DHT22;62116;43.582;1.470;2023-04-12T00:42:22;14.84;67.01
65584;DHT22;62116;43.582;1.470;2023-04-12T00:44:48;14.83;67.30
65584;DHT22;62116;43.582;1.470;2023-04-12T00:47:14;14.80;67.11
65584;DHT22;62116;43.582;1.470;2023-04-12T00:49:40;14.74;67.30
65584;DHT22;62116;43.582;1.470;2023-04-12T00:52:09;14.76;67.26
65584;DHT22;62116;43.582;1.470;2023-04-12T00:54:38;14.74;67.12
65584;DHT22;62116;43.582;1.470;2023-04-12T00:57:04;14.67;67.38
65584;DHT22;62116;43.582;1.470;2023-04-12T00:59:30;14.66;67.07
65584;DHT22;62116;43.582;1.470;2023-04-12T01:01:56;14.57;67.19
65584;DHT22;62116;43.582;1.470;2023-04-12T01:04:22;14.55;66.97
65584;DHT22;62116;43.582;1.470;2023-04-12T01:12:39;14.43;67.16
65584;DHT22;62116;43.582;1.470;2023-04-12T01:15:12;14.42;67.44
65584;DHT22;62116;43.582;1.470;2023-04-12T01:18:24;14.40;67.44
65584;DHT22;62116;43.582;1.470;2023-04-12T01:20:50;14.40;67.46
65584;DHT22;62116;43.582;1.470;2023-04-12T01:23:46;14.39;67.53
65584;DHT22;62116;43.582;1.470;2023-04-12T01:26:44;14.34;67.44
65584;DHT22;62116;43.582;1.470;2023-04-12T01:29:13;14.32;67.51
65584;DHT22;62116;43.582;1.470;2023-04-12T01:31:44;14.28;67.67
65584;DHT22;62116;43.582;1.470;2023-04-12T01:34:10;14.23;67.89
65584;DHT22;62116;43.582;1.470;2023-04-12T01:36:37;14.18;68.27
65584;DHT22;62116;43.582;1.470;2023-04-12T01:39:03;14.12;68.34
65584;DHT22;62116;43.582;1.470;2023-04-12T01:41:31;14.10;68.77
65584;DHT22;62116;43.582;1.470;2023-04-12T01:43:56;14.05;68.70
65584;DHT22;62116;43.582;1.470;2023-04-12T01:46:22;14.04;68.91
65584;DHT22;62116;43.582;1.470;2023-04-12T01:48:50;13.97;69.21
65584;DHT22;62116;43.582;1.470;2023-04-12T01:53:56;13.94;69.29
65584;DHT22;62116;43.582;1.470;2023-04-12T01:56:25;13.90;69.16
65584;DHT22;62116;43.582;1.470;2023-04-12T01:58:54;13.89;69.06
65584;DHT22;62116;43.582;1.470;2023-04-12T02:01:21;13.85;69.55
65584;DHT22;62116;43.582;1.470;2023-04-12T02:03:46;13.81;69.35
65584;DHT22;62116;43.582;1.470;2023-04-12T02:06:14;13.79;69.50
65584;DHT22;62116;43.582;1.470;2023-04-12T02:08:40;13.81;69.73
65584;DHT22;62116;43.582;1.470;2023-04-12T02:11:10;13.75;69.85
65584;DHT22;62116;43.582;1.470;2023-04-12T02:13:35;13.74;69.87
65584;DHT22;62116;43.582;1.470;2023-04-12T02:16:01;13.65;69.97
65584;DHT22;62116;43.582;1.470;2023-04-12T02:18:27;13.71;69.71
65584;DHT22;62116;43.582;1.470;2023-04-12T02:20:53;13.69;69.72
65584;DHT22;62116;43.582;1.470;2023-04-12T02:23:18;13.68;69.80
65584;DHT22;62116;43.582;1.470;2023-04-12T02:25:43;13.61;70.14
65584;DHT22;62116;43.582;1.470;2023-04-12T02:28:11;13.59;69.94
65584;DHT22;62116;43.582;1.470;2023-04-12T02:30:37;13.55;70.18
65584;DHT22;62116;43.582;1.470;2023-04-12T02:33:03;13.50;70.40
65584;DHT22;62116;43.582;1.470;2023-04-12T02:35:30;13.48;70.35
65584;DHT22;62116;43.582;1.470;2023-04-12T02:37:56;13.41;70.51
65584;DHT22;62116;43.582;1.470;2023-04-12T02:40:22;13.38;70.88
65584;DHT22;62116;43.582;1.470;2023-04-12T02:42:47;13.41;70.84
65584;DHT22;62116;43.582;1.470;2023-04-12T02:45:13;13.40;70.95
65584;DHT22;62116;43.582;1.470;2023-04-12T02:47:38;13.44;70.67
65584;DHT22;62116;43.582;1.470;2023-04-12T02:50:05;13.44;70.65
65584;DHT22;62116;43.582;1.470;2023-04-12T02:52:31;13.44;70.72
65584;DHT22;62116;43.582;1.470;2023-04-12T02:54:57;13.43;70.45
65584;DHT22;62116;43.582;1.470;2023-04-12T02:57:23;13.40;70.57
65584;DHT22;62116;43.582;1.470;2023-04-12T02:59:52;13.37;70.59
65584;DHT22;62116;43.582;1.470;2023-04-12T03:02:21;13.33;70.46
65584;DHT22;62116;43.582;1.470;2023-04-12T03:04:47;13.34;70.40
65584;DHT22;62116;43.582;1.470;2023-04-12T03:07:19;13.27;70.67
65584;DHT22;62116;43.582;1.470;2023-04-12T03:09:46;13.28;70.82
65584;DHT22;62116;43.582;1.470;2023-04-12T03:12:13;13.25;70.81
65584;DHT22;62116;43.582;1.470;2023-04-12T03:14:38;13.20;71.25
65584;DHT22;62116;43.582;1.470;2023-04-12T03:17:04;13.18;71.09
65584;DHT22;62116;43.582;1.470;2023-04-12T03:19:29;13.18;71.25
65584;DHT22;62116;43.582;1.470;2023-04-12T03:21:57;13.21;70.98
65584;DHT22;62116;43.582;1.470;2023-04-12T03:24:23;13.18;71.15
65584;DHT22;62116;43.582;1.470;2023-04-12T03:26:48;13.15;71.32
65584;DHT22;62116;43.582;1.470;2023-04-12T03:29:14;13.15;71.11
65584;DHT22;62116;43.582;1.470;2023-04-12T03:31:40;13.15;71.00
65584;DHT22;62116;43.582;1.470;2023-04-12T03:34:05;13.15;71.22
65584;DHT22;62116;43.582;1.470;2023-04-12T03:36:32;13.10;71.18
65584;DHT22;62116;43.582;1.470;2023-04-12T03:38:58;13.13;71.12
65584;DHT22;62116;43.582;1.470;2023-04-12T03:41:24;13.06;71.24
65584;DHT22;62116;43.582;1.470;2023-04-12T03:43:50;13.01;71.53
65584;DHT22;62116;43.582;1.470;2023-04-12T03:46:16;12.99;71.68
65584;DHT22;62116;43.582;1.470;2023-04-12T03:48:42;12.94;71.90
65584;DHT22;62116;43.582;1.470;2023-04-12T03:51:08;12.91;71.94
65584;DHT22;62116;43.582;1.470;2023-04-12T03:53:39;12.87;72.05
65584;DHT22;62116;43.582;1.470;2023-04-12T03:56:05;12.86;72.37
65584;DHT22;62116;43.582;1.470;2023-04-12T03:58:30;12.91;71.86
65584;DHT22;62116;43.582;1.470;2023-04-12T04:00:59;12.86;71.95
65584;DHT22;62116;43.582;1.470;2023-04-12T04:03:26;12.89;71.88
65584;DHT22;62116;43.582;1.470;2023-04-12T04:05:54;12.89;72.15
65584;DHT22;62116;43.582;1.470;2023-04-12T04:08:20;12.80;72.36
65584;DHT22;62116;43.582;1.470;2023-04-12T04:10:46;12.84;71.87
65584;DHT22;62116;43.582;1.470;2023-04-12T04:13:11;12.80;72.30
65584;DHT22;62116;43.582;1.470;2023-04-12T04:15:36;12.83;72.24
65584;DHT22;62116;43.582;1.470;2023-04-12T04:18:02;12.77;72.55
65584;DHT22;62116;43.582;1.470;2023-04-12T04:20:27;12.80;72.29
65584;DHT22;62116;43.582;1.470;2023-04-12T04:22:53;12.80;72.30
65584;DHT22;62116;43.582;1.470;2023-04-12T04:25:18;12.79;72.52
65584;DHT22;62116;43.582;1.470;2023-04-12T04:27:44;12.79;72.31
65584;DHT22;62116;43.582;1.470;2023-04-12T04:30:13;12.75;72.39
65584;DHT22;62116;43.582;1.470;2023-04-12T04:32:42;12.77;72.11
65584;DHT22;62116;43.582;1.470;2023-04-12T04:35:08;12.76;72.05
65584;DHT22;62116;43.582;1.470;2023-04-12T04:37:33;12.75;72.34
65584;DHT22;62116;43.582;1.470;2023-04-12T04:40:02;12.79;72.07
65584;DHT22;62116;43.582;1.470;2023-04-12T04:42:36;12.75;72.15
65584;DHT22;62116;43.582;1.470;2023-04-12T04:45:03;12.76;72.12
65584;DHT22;62116;43.582;1.470;2023-04-12T04:47:36;12.76;72.43
65584;DHT22;62116;43.582;1.470;2023-04-12T04:50:02;12.75;72.54
65584;DHT22;62116;43.582;1.470;2023-04-12T04:52:27;12.67;72.62
65584;DHT22;62116;43.582;1.470;2023-04-12T04:54:53;12.69;72.70
65584;DHT22;62116;43.582;1.470;2023-04-12T04:57:22;12.67;72.84
65584;DHT22;62116;43.582;1.470;2023-04-12T04:59:47;12.70;72.86
65584;DHT22;62116;43.582;1.470;2023-04-12T05:02:13;12.64;72.87
65584;DHT22;62116;43.582;1.470;2023-04-12T05:04:38;12.67;72.79
65584;DHT22;62116;43.582;1.470;2023-04-12T05:07:03;12.64;72.73
65584;DHT22;62116;43.582;1.470;2023-04-12T05:09:29;12.57;73.24
65584;DHT22;62116;43.582;1.470;2023-04-12T05:11:54;12.56;73.31
65584;DHT22;62116;43.582;1.470;2023-04-12T05:14:20;12.60;73.09
65584;DHT22;62116;43.582;1.470;2023-04-12T05:16:45;12.57;73.31
65584;DHT22;62116;43.582;1.470;2023-04-12T05:19:10;12.61;73.46
65584;DHT22;62116;43.582;1.470;2023-04-12T05:21:36;12.66;73.31
65584;DHT22;62116;43.582;1.470;2023-04-12T05:24:01;12.60;73.75
65584;DHT22;62116;43.582;1.470;2023-04-12T05:26:27;12.61;73.60
65584;DHT22;62116;43.582;1.470;2023-04-12T05:28:52;12.57;74.09
65584;DHT22;62116;43.582;1.470;2023-04-12T05:31:17;12.59;73.72
65584;DHT22;62116;43.582;1.470;2023-04-12T05:33:43;12.64;73.91
65584;DHT22;62116;43.582;1.470;2023-04-12T05:36:10;12.61;73.94
65584;DHT22;62116;43.582;1.470;2023-04-12T05:38:35;12.63;73.87
65584;DHT22;62116;43.582;1.470;2023-04-12T05:41:01;12.67;73.91
65584;DHT22;62116;43.582;1.470;2023-04-12T05:43:29;12.72;73.83
65584;DHT22;62116;43.582;1.470;2023-04-12T05:45:54;12.73;73.87
65584;DHT22;62116;43.582;1.470;2023-04-12T05:48:20;12.76;73.63
65584;DHT22;62116;43.582;1.470;2023-04-12T05:50:52;12.83;73.56
65584;DHT22;62116;43.582;1.470;2023-04-12T05:53:17;12.81;73.77
65584;DHT22;62116;43.582;1.470;2023-04-12T05:55:43;12.89;73.73
65584;DHT22;62116;43.582;1.470;2023-04-12T05:58:10;12.94;73.40
65584;DHT22;62116;43.582;1.470;2023-04-12T06:00:35;12.99;73.34
65584;DHT22;62116;43.582;1.470;2023-04-12T06:03:01;12.96;73.49
65584;DHT22;62116;43.582;1.470;2023-04-12T06:05:27;12.99;73.59
65584;DHT22;62116;43.582;1.470;2023-04-12T06:07:53;13.04;73.48
65584;DHT22;62116;43.582;1.470;2023-04-12T06:10:19;13.13;73.43
65584;DHT22;62116;43.582;1.470;2023-04-12T06:12:46;13.23;73.14
65584;DHT22;62116;43.582;1.470;2023-04-12T06:15:11;13.28;73.02
65584;DHT22;62116;43.582;1.470;2023-04-12T06:17:37;13.35;72.86
65584;DHT22;62116;43.582;1.470;2023-04-12T06:20:03;13.47;72.53
65584;DHT22;62116;43.582;1.470;2023-04-12T06:22:33;13.50;72.43
65584;DHT22;62116;43.582;1.470;2023-04-12T06:24:58;13.58;71.65
65584;DHT22;62116;43.582;1.470;2023-04-12T06:27:24;13.62;71.27
65584;DHT22;62116;43.582;1.470;2023-04-12T06:29:50;13.67;71.08
65584;DHT22;62116;43.582;1.470;2023-04-12T06:32:15;13.74;70.96
65584;DHT22;62116;43.582;1.470;2023-04-12T06:34:41;13.78;70.85
65584;DHT22;62116;43.582;1.470;2023-04-12T06:37:06;13.77;71.13
65584;DHT22;62116;43.582;1.470;2023-04-12T06:39:31;13.82;70.73
65584;DHT22;62116;43.582;1.470;2023-04-12T06:41:57;13.79;70.71
65584;DHT22;62116;43.582;1.470;2023-04-12T06:44:22;13.83;70.70
65584;DHT22;62116;43.582;1.470;2023-04-12T06:46:48;13.85;70.67
65584;DHT22;62116;43.582;1.470;2023-04-12T06:49:13;13.83;70.69
65584;DHT22;62116;43.582;1.470;2023-04-12T06:51:39;13.85;70.81
65584;DHT22;62116;43.582;1.470;2023-04-12T06:54:04;13.83;70.70
65584;DHT22;62116;43.582;1.470;2023-04-12T06:56:30;13.83;70.77
65584;DHT22;62116;43.582;1.470;2023-04-12T06:58:55;13.86;71.08
65584;DHT22;62116;43.582;1.470;2023-04-12T07:01:21;13.94;70.95
65584;DHT22;62116;43.582;1.470;2023-04-12T07:03:46;13.97;70.80
65584;DHT22;62116;43.582;1.470;2023-04-12T07:06:11;13.98;70.76
65584;DHT22;62116;43.582;1.470;2023-04-12T07:08:37;14.02;70.87
65584;DHT22;62116;43.582;1.470;2023-04-12T07:11:02;14.04;70.85
65584;DHT22;62116;43.582;1.470;2023-04-12T07:13:28;14.06;70.76
65584;DHT22;62116;43.582;1.470;2023-04-12T07:15:55;14.10;70.79
65584;DHT22;62116;43.582;1.470;2023-04-12T07:18:20;14.10;70.90
65584;DHT22;62116;43.582;1.470;2023-04-12T07:20:47;14.15;71.08
65584;DHT22;62116;43.582;1.470;2023-04-12T07:23:13;14.19;70.83
65584;DHT22;62116;43.582;1.470;2023-04-12T07:25:39;14.18;70.93
65584;DHT22;62116;43.582;1.470;2023-04-12T07:28:04;14.23;71.15
65584;DHT22;62116;43.582;1.470;2023-04-12T07:30:30;14.29;71.30
65584;DHT22;62116;43.582;1.470;2023-04-12T07:32:55;14.34;71.06
65584;DHT22;62116;43.582;1.470;2023-04-12T07:35:21;14.34;70.81
65584;DHT22;62116;43.582;1.470;2023-04-12T07:37:46;14.39;70.53
65584;DHT22;62116;43.582;1.470;2023-04-12T07:40:12;14.42;70.79
65584;DHT22;62116;43.582;1.470;2023-04-12T07:42:37;14.47;70.74
65584;DHT22;62116;43.582;1.470;2023-04-12T07:45:03;14.59;70.48
65584;DHT22;62116;43.582;1.470;2023-04-12T07:47:28;14.62;70.14
65584;DHT22;62116;43.582;1.470;2023-04-12T07:49:54;14.72;70.11
65584;DHT22;62116;43.582;1.470;2023-04-12T07:52:20;14.80;70.02
65584;DHT22;62116;43.582;1.470;2023-04-12T07:54:45;14.81;69.85
65584;DHT22;62116;43.582;1.470;2023-04-12T07:57:11;14.90;69.59
65584;DHT22;62116;43.582;1.470;2023-04-12T07:59:36;14.93;69.56
65584;DHT22;62116;43.582;1.470;2023-04-12T08:02:01;15.04;69.52
65584;DHT22;62116;43.582;1.470;2023-04-12T08:04:27;15.04;68.84
65584;DHT22;62116;43.582;1.470;2023-04-12T08:06:53;15.08;69.40
65584;DHT22;62116;43.582;1.470;2023-04-12T08:09:19;15.17;69.41
65584;DHT22;62116;43.582;1.470;2023-04-12T08:11:44;15.25;69.16
65584;DHT22;62116;43.582;1.470;2023-04-12T08:14:11;15.30;68.99
65584;DHT22;62116;43.582;1.470;2023-04-12T08:16:37;15.35;68.98
65584;DHT22;62116;43.582;1.470;2023-04-12T08:19:02;15.38;69.00
65584;DHT22;62116;43.582;1.470;2023-04-12T08:21:28;15.37;68.58
65584;DHT22;62116;43.582;1.470;2023-04-12T08:23:54;15.37;68.62
65584;DHT22;62116;43.582;1.470;2023-04-12T08:26:20;15.34;68.87
65584;DHT22;62116;43.582;1.470;2023-04-12T08:28:45;15.37;69.21
65584;DHT22;62116;43.582;1.470;2023-04-12T08:31:13;15.42;69.30
65584;DHT22;62116;43.582;1.470;2023-04-12T08:33:38;15.45;69.05
65584;DHT22;62116;43.582;1.470;2023-04-12T08:36:04;15.48;69.24
65584;DHT22;62116;43.582;1.470;2023-04-12T08:38:30;15.49;68.61
65584;DHT22;62116;43.582;1.470;2023-04-12T08:40:55;15.49;68.52
65584;DHT22;62116;43.582;1.470;2023-04-12T08:43:24;15.49;68.53
65584;DHT22;62116;43.582;1.470;2023-04-12T08:45:50;15.51;68.52
65584;DHT22;62116;43.582;1.470;2023-04-12T08:48:16;15.54;68.21
65584;DHT22;62116;43.582;1.470;2023-04-12T08:50:43;15.58;67.88
65584;DHT22;62116;43.582;1.470;2023-04-12T08:53:10;15.55;67.38
65584;DHT22;62116;43.582;1.470;2023-04-12T08:55:36;15.55;67.26
65584;DHT22;62116;43.582;1.470;2023-04-12T08:58:02;15.57;67.44
65584;DHT22;62116;43.582;1.470;2023-04-12T09:00:32;15.65;67.44
65584;DHT22;62116;43.582;1.470;2023-04-12T09:02:58;15.66;67.43
65584;DHT22;62116;43.582;1.470;2023-04-12T09:05:28;15.73;67.07
65584;DHT22;62116;43.582;1.470;2023-04-12T09:07:54;15.77;67.04
65584;DHT22;62116;43.582;1.470;2023-04-12T09:10:36;15.83;67.01
65584;DHT22;62116;43.582;1.470;2023-04-12T09:13:05;15.86;66.66
65584;DHT22;62116;43.582;1.470;2023-04-12T09:15:32;15.91;66.63
65584;DHT22;62116;43.582;1.470;2023-04-12T09:18:17;15.95;66.04
65584;DHT22;62116;43.582;1.470;2023-04-12T09:20:42;15.91;65.77
65584;DHT22;62116;43.582;1.470;2023-04-12T09:23:18;15.96;66.06
65584;DHT22;62116;43.582;1.470;2023-04-12T09:25:44;16.03;65.70
65584;DHT22;62116;43.582;1.470;2023-04-12T09:28:23;16.10;65.65
65584;DHT22;62116;43.582;1.470;2023-04-12T09:30:51;16.19;65.04
65584;DHT22;62116;43.582;1.470;2023-04-12T09:33:18;16.22;64.32
65584;DHT22;62116;43.582;1.470;2023-04-12T09:35:43;16.27;64.03
65584;DHT22;62116;43.582;1.470;2023-04-12T09:38:09;16.33;63.94
65584;DHT22;62116;43.582;1.470;2023-04-12T09:40:35;16.40;63.66
65584;DHT22;62116;43.582;1.470;2023-04-12T09:43:02;16.42;62.69
65584;DHT22;62116;43.582;1.470;2023-04-12T09:45:28;16.50;63.10
65584;DHT22;62116;43.582;1.470;2023-04-12T09:47:56;16.56;62.38
65584;DHT22;62116;43.582;1.470;2023-04-12T09:50:29;16.64;62.25
65584;DHT22;62116;43.582;1.470;2023-04-12T09:53:01;16.67;62.12
65584;DHT22;62116;43.582;1.470;2023-04-12T09:55:29;16.73;62.10
65584;DHT22;62116;43.582;1.470;2023-04-12T09:57:56;16.73;61.40
65584;DHT22;62116;43.582;1.470;2023-04-12T10:00:25;16.78;61.21
65584;DHT22;62116;43.582;1.470;2023-04-12T10:02:52;16.84;61.43
65584;DHT22;62116;43.582;1.470;2023-04-12T10:05:20;16.90;61.65
65584;DHT22;62116;43.582;1.470;2023-04-12T10:07:46;17.00;60.58
65584;DHT22;62116;43.582;1.470;2023-04-12T10:10:13;17.03;60.67
65584;DHT22;62116;43.582;1.470;2023-04-12T10:12:40;17.06;60.77
65584;DHT22;62116;43.582;1.470;2023-04-12T10:15:07;17.12;60.92
65584;DHT22;62116;43.582;1.470;2023-04-12T10:17:42;17.20;61.11
65584;DHT22;62116;43.582;1.470;2023-04-12T10:20:15;17.21;60.23
65584;DHT22;62116;43.582;1.470;2023-04-12T10:22:42;17.24;60.92
65584;DHT22;62116;43.582;1.470;2023-04-12T10:25:10;17.28;60.63
65584;DHT22;62116;43.582;1.470;2023-04-12T10:27:38;17.31;59.86
65584;DHT22;62116;43.582;1.470;2023-04-12T10:30:27;17.39;60.09
65584;DHT22;62116;43.582;1.470;2023-04-12T10:35:27;17.49;59.69
65584;DHT22;62116;43.582;1.470;2023-04-12T10:38:00;17.55;59.20
65584;DHT22;62116;43.582;1.470;2023-04-12T10:40:27;17.61;59.04
65584;DHT22;62116;43.582;1.470;2023-04-12T10:43:28;17.71;58.37
65584;DHT22;62116;43.582;1.470;2023-04-12T10:45:54;17.75;58.73
65584;DHT22;62116;43.582;1.470;2023-04-12T10:48:49;17.85;58.98
65584;DHT22;62116;43.582;1.470;2023-04-12T10:56:42;17.99;57.59
65584;DHT22;62116;43.582;1.470;2023-04-12T10:59:11;18.02;57.91
65584;DHT22;62116;43.582;1.470;2023-04-12T11:01:38;18.09;57.85
65584;DHT22;62116;43.582;1.470;2023-04-12T11:04:19;18.10;57.87
65584;DHT22;62116;43.582;1.470;2023-04-12T11:12:12;18.16;57.27
65584;DHT22;62116;43.582;1.470;2023-04-12T11:14:48;18.22;57.45
65584;DHT22;62116;43.582;1.470;2023-04-12T11:19:44;18.27;56.72
65584;DHT22;62116;43.582;1.470;2023-04-12T11:22:11;18.26;55.63
65584;DHT22;62116;43.582;1.470;2023-04-12T11:24:38;18.25;55.16
65584;DHT22;62116;43.582;1.470;2023-04-12T11:27:04;18.22;55.82
65584;DHT22;62116;43.582;1.470;2023-04-12T11:29:30;18.14;54.75
65584;DHT22;62116;43.582;1.470;2023-04-12T11:31:57;18.13;54.90
65584;DHT22;62116;43.582;1.470;2023-04-12T11:34:23;18.10;55.39
65584;DHT22;62116;43.582;1.470;2023-04-12T11:36:51;18.06;55.68
65584;DHT22;62116;43.582;1.470;2023-04-12T11:39:18;18.02;55.66
65584;DHT22;62116;43.582;1.470;2023-04-12T11:41:47;18.00;55.62
65584;DHT22;62116;43.582;1.470;2023-04-12T11:44:14;17.96;56.12
65584;DHT22;62116;43.582;1.470;2023-04-12T11:46:46;17.93;55.86
65584;DHT22;62116;43.582;1.470;2023-04-12T11:49:18;17.86;56.33
65584;DHT22;62116;43.582;1.470;2023-04-12T11:51:44;17.79;56.62
65584;DHT22;62116;43.582;1.470;2023-04-12T11:54:10;17.72;57.00
65584;DHT22;62116;43.582;1.470;2023-04-12T11:56:36;17.66;57.06
65584;DHT22;62116;43.582;1.470;2023-04-12T11:59:02;17.66;57.26
65584;DHT22;62116;43.582;1.470;2023-04-12T12:01:28;17.59;57.54
65584;DHT22;62116;43.582;1.470;2023-04-12T12:03:54;17.55;57.80
65584;DHT22;62116;43.582;1.470;2023-04-12T12:06:21;17.52;57.97
65584;DHT22;62116;43.582;1.470;2023-04-12T12:08:50;17.49;58.40
65584;DHT22;62116;43.582;1.470;2023-04-12T12:11:18;17.46;59.00
65584;DHT22;62116;43.582;1.470;2023-04-12T12:13:54;17.48;58.73
65584;DHT22;62116;43.582;1.470;2023-04-12T12:16:28;17.39;58.76
65584;DHT22;62116;43.582;1.470;2023-04-12T12:18:54;17.36;59.04
65584;DHT22;62116;43.582;1.470;2023-04-12T12:21:20;17.34;58.94
65584;DHT22;62116;43.582;1.470;2023-04-12T12:23:46;17.36;59.07
65584;DHT22;62116;43.582;1.470;2023-04-12T12:26:26;17.34;59.20
65584;DHT22;62116;43.582;1.470;2023-04-12T12:28:56;17.31;59.52
65584;DHT22;62116;43.582;1.470;2023-04-12T12:31:24;17.30;60.36
65584;DHT22;62116;43.582;1.470;2023-04-12T12:33:55;17.30;61.04
65584;DHT22;62116;43.582;1.470;2023-04-12T12:36:31;17.22;60.97
65584;DHT22;62116;43.582;1.470;2023-04-12T12:39:02;17.20;61.74
65584;DHT22;62116;43.582;1.470;2023-04-12T12:41:31;17.17;62.08
65584;DHT22;62116;43.582;1.470;2023-04-12T12:43:56;17.14;63.10
65584;DHT22;62116;43.582;1.470;2023-04-12T12:46:22;17.07;64.02
65584;DHT22;62116;43.582;1.470;2023-04-12T12:48:47;17.06;63.72
65584;DHT22;62116;43.582;1.470;2023-04-12T12:51:14;17.01;64.57
65584;DHT22;62116;43.582;1.470;2023-04-12T12:53:42;16.97;65.68
65584;DHT22;62116;43.582;1.470;2023-04-12T12:56:08;16.94;66.72
65584;DHT22;62116;43.582;1.470;2023-04-12T12:58:34;16.80;67.69
65584;DHT22;62116;43.582;1.470;2023-04-12T13:01:01;16.73;69.06
65584;DHT22;62116;43.582;1.470;2023-04-12T13:03:26;16.61;70.15
65584;DHT22;62116;43.582;1.470;2023-04-12T13:05:51;16.50;69.97
65584;DHT22;62116;43.582;1.470;2023-04-12T13:08:17;16.33;70.81
65584;DHT22;62116;43.582;1.470;2023-04-12T13:10:42;16.20;71.64
65584;DHT22;62116;43.582;1.470;2023-04-12T13:13:08;15.93;68.96
65584;DHT22;62116;43.582;1.470;2023-04-12T13:15:34;15.73;69.97
65584;DHT22;62116;43.582;1.470;2023-04-12T13:17:59;15.49;70.24
65584;DHT22;62116;43.582;1.470;2023-04-12T13:20:25;15.38;70.21
65584;DHT22;62116;43.582;1.470;2023-04-12T13:22:52;15.21;70.75
65584;DHT22;62116;43.582;1.470;2023-04-12T13:25:18;15.08;71.25
65584;DHT22;62116;43.582;1.470;2023-04-12T13:27:44;15.03;71.96
65584;DHT22;62116;43.582;1.470;2023-04-12T13:30:10;15.03;72.27
65584;DHT22;62116;43.582;1.470;2023-04-12T13:32:35;14.86;72.60
65584;DHT22;62116;43.582;1.470;2023-04-12T13:35:02;14.72;73.57
65584;DHT22;62116;43.582;1.470;2023-04-12T13:37:27;14.63;73.57
65584;DHT22;62116;43.582;1.470;2023-04-12T13:39:52;14.47;73.98
65584;DHT22;62116;43.582;1.470;2023-04-12T13:42:18;14.37;74.73
65584;DHT22;62116;43.582;1.470;2023-04-12T13:44:44;14.29;75.32
65584;DHT22;62116;43.582;1.470;2023-04-12T13:47:09;14.30;75.43
65584;DHT22;62116;43.582;1.470;2023-04-12T13:49:36;14.19;75.27
65584;DHT22;62116;43.582;1.470;2023-04-12T13:52:01;14.15;75.46
65584;DHT22;62116;43.582;1.470;2023-04-12T13:54:27;14.10;74.66
65584;DHT22;62116;43.582;1.470;2023-04-12T13:56:55;14.09;74.76
65584;DHT22;62116;43.582;1.470;2023-04-12T13:59:21;14.05;74.25
65584;DHT22;62116;43.582;1.470;2023-04-12T14:01:47;13.98;74.17
65584;DHT22;62116;43.582;1.470;2023-04-12T14:04:12;13.89;73.62
65584;DHT22;62116;43.582;1.470;2023-04-12T14:06:38;13.78;72.77
65584;DHT22;62116;43.582;1.470;2023-04-12T14:09:03;13.74;73.54
65584;DHT22;62116;43.582;1.470;2023-04-12T14:11:30;13.65;73.37
65584;DHT22;62116;43.582;1.470;2023-04-12T14:14:08;13.67;74.15
65584;DHT22;62116;43.582;1.470;2023-04-12T14:16:34;13.65;73.51
65584;DHT22;62116;43.582;1.470;2023-04-12T14:18:59;13.62;73.17
65584;DHT22;62116;43.582;1.470;2023-04-12T14:21:25;13.62;73.07
65584;DHT22;62116;43.582;1.470;2023-04-12T14:23:53;13.62;73.07
65584;DHT22;62116;43.582;1.470;2023-04-12T14:26:18;13.64;73.32
65584;DHT22;62116;43.582;1.470;2023-04-12T14:28:43;13.64;73.10
65584;DHT22;62116;43.582;1.470;2023-04-12T14:31:09;13.68;73.43
65584;DHT22;62116;43.582;1.470;2023-04-12T14:33:34;13.62;73.57
65584;DHT22;62116;43.582;1.470;2023-04-12T14:36:00;13.64;74.24
65584;DHT22;62116;43.582;1.470;2023-04-12T14:38:29;13.57;73.02
65584;DHT22;62116;43.582;1.470;2023-04-12T14:40:54;13.59;73.94
65584;DHT22;62116;43.582;1.470;2023-04-12T14:43:20;13.61;73.32
65584;DHT22;62116;43.582;1.470;2023-04-12T14:45:45;13.58;72.76
65584;DHT22;62116;43.582;1.470;2023-04-12T14:48:11;13.55;72.85
65584;DHT22;62116;43.582;1.470;2023-04-12T14:50:36;13.53;72.45
65584;DHT22;62116;43.582;1.470;2023-04-12T14:53:02;13.50;72.75
65584;DHT22;62116;43.582;1.470;2023-04-12T14:55:27;13.48;72.95
65584;DHT22;62116;43.582;1.470;2023-04-12T14:57:52;13.48;73.61
65584;DHT22;62116;43.582;1.470;2023-04-12T15:00:18;13.48;73.13
65584;DHT22;62116;43.582;1.470;2023-04-12T15:02:44;13.44;72.13
65584;DHT22;62116;43.582;1.470;2023-04-12T15:05:11;13.41;72.51
65584;DHT22;62116;43.582;1.470;2023-04-12T15:07:37;13.44;72.65
65584;DHT22;62116;43.582;1.470;2023-04-12T15:10:03;13.41;71.85
65584;DHT22;62116;43.582;1.470;2023-04-12T15:12:29;13.43;73.13
65584;DHT22;62116;43.582;1.470;2023-04-12T15:14:57;13.44;73.30
65584;DHT22;62116;43.582;1.470;2023-04-12T15:17:24;13.51;73.58
65584;DHT22;62116;43.582;1.470;2023-04-12T15:19:50;13.51;73.42
65584;DHT22;62116;43.582;1.470;2023-04-12T15:22:16;13.50;73.27
65584;DHT22;62116;43.582;1.470;2023-04-12T15:24:41;13.53;72.85
65584;DHT22;62116;43.582;1.470;2023-04-12T15:27:06;13.47;71.40
65584;DHT22;62116;43.582;1.470;2023-04-12T15:29:33;13.47;72.59
65584;DHT22;62116;43.582;1.470;2023-04-12T15:31:58;13.45;72.37
65584;DHT22;62116;43.582;1.470;2023-04-12T15:34:24;13.48;71.95
65584;DHT22;62116;43.582;1.470;2023-04-12T15:36:50;13.44;72.50
65584;DHT22;62116;43.582;1.470;2023-04-12T15:39:17;13.44;72.32
65584;DHT22;62116;43.582;1.470;2023-04-12T15:41:42;13.44;71.80
65584;DHT22;62116;43.582;1.470;2023-04-12T15:44:09;13.38;72.47
65584;DHT22;62116;43.582;1.470;2023-04-12T15:46:37;13.33;72.06
65584;DHT22;62116;43.582;1.470;2023-04-12T15:49:03;13.33;73.01
65584;DHT22;62116;43.582;1.470;2023-04-12T15:51:29;13.33;72.37
65584;DHT22;62116;43.582;1.470;2023-04-12T15:53:56;13.27;72.10